createdAt,value
2022-10-17T00:00:08.354Z,13.60
2022-10-17T00:03:11.970Z,13.73
2022-10-17T00:06:15.198Z,13.52
2022-10-17T00:09:17.670Z,13.38
2022-10-17T00:12:19.872Z,14.40
2022-10-17T00:15:22.488Z,12.90
2022-10-17T00:18:25.207Z,13.93
2022-10-17T00:21:27.790Z,12.32
2022-10-17T00:24:31.682Z,13.73
2022-10-17T00:27:39.114Z,13.82
2022-10-17T00:30:41.928Z,12.88
2022-10-17T00:33:44.672Z,14.10
2022-10-17T00:36:46.904Z,12.95
2022-10-17T00:39:49.632Z,13.65
2022-10-17T00:42:53.294Z,13.35
2022-10-17T00:45:56.865Z,12.90
2022-10-17T00:49:03.107Z,13.23
2022-10-17T00:52:11.694Z,13.62
2022-10-17T00:55:20.036Z,13.52
2022-10-17T00:58:22.842Z,13.38
2022-10-17T01:01:25.431Z,13.48
2022-10-17T01:04:28.010Z,13.60
2022-10-17T01:07:34.664Z,13.25
2022-10-17T01:10:48.131Z,13.38
2022-10-17T01:13:58.297Z,14.75
2022-10-17T01:17:11.404Z,12.95
2022-10-17T01:20:39.606Z,13.65
2022-10-17T01:24:00.901Z,13.93
2022-10-17T01:27:34.138Z,13.15
2022-10-17T01:31:08.051Z,13.93
2022-10-17T01:34:18.893Z,13.02
2022-10-17T01:37:41.071Z,12.90
2022-10-17T01:40:52.705Z,12.23
2022-10-17T01:44:13.129Z,12.63
2022-10-17T01:47:21.866Z,13.15
2022-10-17T01:50:31.231Z,13.70
2022-10-17T01:53:42.824Z,13.00
2022-10-17T01:56:47.771Z,13.25
2022-10-17T01:59:52.997Z,13.60
2022-10-17T02:03:00.254Z,12.70
2022-10-17T02:06:04.619Z,13.45
2022-10-17T02:09:23.193Z,12.45
2022-10-17T02:12:52.035Z,13.70
2022-10-17T02:16:06.258Z,13.02
2022-10-17T02:19:21.040Z,13.20
2022-10-17T02:22:31.969Z,12.52
2022-10-17T02:25:41.623Z,13.50
2022-10-17T02:28:58.803Z,12.65
2022-10-17T02:32:08.810Z,13.35
2022-10-17T02:35:15.590Z,12.80
2022-10-17T02:38:18.661Z,12.02
2022-10-17T02:41:24.018Z,13.02
2022-10-17T02:44:28.669Z,12.27
2022-10-17T02:50:57.401Z,12.23
2022-10-17T02:54:17.147Z,12.40
2022-10-17T02:57:31.065Z,12.55
2022-10-17T03:00:35.411Z,12.73
2022-10-17T03:03:38.107Z,12.23
2022-10-17T03:06:41.364Z,12.05
2022-10-17T03:09:43.919Z,11.77
2022-10-17T03:12:46.180Z,11.95
2022-10-17T03:15:48.772Z,11.82
2022-10-17T03:18:51.322Z,11.57
2022-10-17T03:21:54.363Z,12.40
2022-10-17T03:24:57.263Z,12.35
2022-10-17T03:28:01.511Z,11.82
2022-10-17T03:34:16.707Z,11.65
2022-10-17T03:37:19.089Z,11.55
2022-10-17T03:40:22.484Z,12.18
2022-10-17T03:43:24.716Z,11.43
2022-10-17T03:46:27.195Z,12.60
2022-10-17T03:49:29.999Z,11.93
2022-10-17T03:52:32.577Z,11.18
2022-10-17T03:55:35.670Z,12.03
2022-10-17T03:58:38.492Z,12.10
2022-10-17T04:01:41.572Z,12.07
2022-10-17T04:04:44.367Z,10.85
2022-10-17T04:07:46.608Z,11.35
2022-10-17T04:10:50.043Z,11.15
2022-10-17T04:13:57.146Z,10.98
2022-10-17T04:17:00.838Z,11.25
2022-10-17T04:20:03.828Z,10.85
2022-10-17T04:23:06.518Z,11.80
2022-10-17T04:26:09.768Z,11.00
2022-10-17T04:29:12.285Z,10.70
2022-10-17T04:32:15.214Z,11.63
2022-10-17T04:35:18.035Z,10.70
2022-10-17T04:38:23.743Z,10.23
2022-10-17T04:41:28.905Z,10.80
2022-10-17T04:44:33.670Z,11.52
2022-10-17T04:47:36.439Z,10.60
2022-10-17T04:50:38.697Z,11.90
2022-10-17T04:56:47.179Z,11.23
2022-10-17T04:59:50.059Z,10.45
2022-10-17T05:02:53.951Z,10.80
2022-10-17T05:05:56.455Z,11.02
2022-10-17T05:08:59.139Z,10.77
2022-10-17T05:12:04.293Z,11.05
2022-10-17T05:15:10.772Z,10.63
2022-10-17T05:18:13.346Z,10.68
2022-10-17T05:21:17.328Z,11.20
2022-10-17T05:24:19.859Z,10.68
2022-10-17T05:27:23.429Z,11.05
2022-10-17T05:30:25.924Z,10.95
2022-10-17T05:33:30.566Z,10.90
2022-10-17T05:36:33.159Z,10.90
2022-10-17T05:39:35.767Z,17.55
2022-10-17T05:45:44.012Z,12.85
2022-10-17T05:51:50.080Z,11.07
2022-10-17T05:54:52.622Z,16.37
2022-10-17T05:57:55.388Z,16.85
2022-10-17T06:01:00.673Z,11.12
2022-10-17T06:04:03.361Z,11.48
2022-10-17T06:07:06.682Z,12.23
2022-10-17T06:10:12.365Z,11.60
2022-10-17T06:13:15.393Z,11.68
2022-10-17T06:16:18.108Z,11.70
2022-10-17T06:19:20.622Z,11.85
2022-10-17T06:22:23.592Z,12.48
2022-10-17T06:25:26.055Z,12.05
2022-10-17T06:28:29.277Z,12.25
2022-10-17T06:31:33.664Z,12.43
2022-10-17T06:34:38.916Z,23.65
2022-10-17T06:37:41.751Z,15.52
2022-10-17T06:40:44.779Z,12.95
2022-10-17T06:43:47.768Z,12.37
2022-10-17T06:46:59.793Z,12.75
2022-10-17T06:50:02.238Z,13.15
2022-10-17T06:53:05.232Z,13.27
2022-10-17T06:56:10.890Z,13.20
2022-10-17T06:59:15.513Z,13.65
2022-10-17T07:02:20.400Z,14.07
2022-10-17T07:05:24.541Z,13.05
2022-10-17T07:08:27.510Z,13.05
2022-10-17T07:11:30.084Z,11.95
2022-10-17T07:14:33.025Z,12.32
2022-10-17T07:17:35.522Z,13.52
2022-10-17T07:20:38.076Z,14.48
2022-10-17T07:23:41.479Z,14.48
2022-10-17T07:26:44.899Z,13.87
2022-10-17T07:29:49.857Z,13.15
2022-10-17T07:32:57.862Z,13.10
2022-10-17T07:36:01.520Z,12.25
2022-10-17T07:39:03.927Z,13.30
2022-10-17T07:42:07.820Z,12.15
2022-10-17T07:48:12.874Z,12.73
2022-10-17T07:51:28.592Z,12.35
2022-10-17T07:54:32.938Z,11.10
2022-10-17T07:57:35.669Z,12.07
2022-10-17T08:00:38.377Z,11.63
2022-10-17T08:03:42.874Z,11.57
2022-10-17T08:06:45.225Z,11.07
2022-10-17T08:09:47.904Z,11.35
2022-10-17T08:12:50.137Z,11.48
2022-10-17T08:15:52.717Z,11.00
2022-10-17T08:18:55.058Z,11.60
2022-10-17T08:21:59.158Z,12.05
2022-10-17T08:25:01.407Z,11.07
2022-10-17T08:28:03.985Z,10.40
2022-10-17T08:31:09.441Z,11.10
2022-10-17T08:34:11.950Z,11.38
2022-10-17T08:37:14.689Z,11.00
2022-10-17T08:40:22.503Z,11.27
2022-10-17T08:43:35.596Z,11.52
2022-10-17T08:46:42.357Z,10.43
2022-10-17T08:49:57.368Z,10.82
2022-10-17T08:53:38.672Z,10.70
2022-10-17T08:56:49.247Z,10.43
2022-10-17T08:59:54.360Z,10.77
2022-10-17T09:03:24.621Z,9.73
2022-10-17T09:06:39.570Z,9.57
2022-10-17T09:10:17.356Z,9.10
2022-10-17T09:14:01.734Z,9.27
2022-10-17T09:17:32.835Z,9.45
2022-10-17T09:20:59.183Z,8.70
2022-10-17T09:24:09.610Z,8.48
2022-10-17T09:27:40.683Z,8.60
2022-10-17T09:30:45.530Z,9.23
2022-10-17T09:33:55.249Z,7.95
2022-10-17T09:37:02.372Z,7.78
2022-10-17T09:40:08.793Z,8.27
2022-10-17T09:43:15.291Z,7.43
2022-10-17T09:46:36.746Z,6.68
2022-10-17T09:49:45.036Z,6.00
2022-10-17T09:52:49.391Z,5.68
2022-10-17T09:55:58.104Z,6.78
2022-10-17T09:59:00.698Z,9.63
2022-10-17T10:02:20.360Z,5.78
2022-10-17T10:05:23.101Z,6.07
2022-10-17T10:08:37.882Z,6.60
2022-10-17T10:11:52.381Z,5.53
2022-10-17T10:14:55.504Z,5.85
2022-10-17T10:21:25.412Z,5.93
2022-10-17T10:24:31.036Z,5.72
2022-10-17T10:27:33.899Z,5.03
2022-10-17T10:30:39.788Z,5.82
2022-10-17T10:33:47.014Z,6.12
2022-10-17T10:37:17.137Z,5.00
2022-10-17T10:40:32.127Z,5.50
2022-10-17T10:43:34.597Z,5.53
2022-10-17T10:46:36.860Z,5.00
2022-10-17T10:49:39.691Z,5.43
2022-10-17T10:53:18.061Z,5.05
2022-10-17T10:56:49.917Z,4.97
2022-10-17T11:00:02.534Z,5.10
2022-10-17T11:03:24.476Z,5.32
2022-10-17T11:06:31.276Z,5.68
2022-10-17T11:09:42.668Z,5.32
2022-10-17T11:13:03.672Z,4.65
2022-10-17T11:16:25.070Z,4.95
2022-10-17T11:19:56.459Z,5.40
2022-10-17T11:23:09.816Z,4.78
2022-10-17T11:26:26.935Z,5.55
2022-10-17T11:29:32.804Z,5.05
2022-10-17T11:32:41.253Z,4.97
2022-10-17T11:35:47.403Z,4.75
2022-10-17T11:39:20.853Z,5.03
2022-10-17T11:42:33.113Z,4.82
2022-10-17T11:45:42.581Z,5.20
2022-10-17T11:49:24.785Z,5.53
2022-10-17T11:52:55.872Z,5.20
2022-10-17T11:56:01.132Z,4.93
2022-10-17T11:59:28.531Z,4.70
2022-10-17T12:02:44.399Z,6.18
2022-10-17T12:05:50.670Z,5.30
2022-10-17T12:09:08.714Z,4.90
2022-10-17T12:12:11.343Z,4.68
2022-10-17T12:15:13.519Z,4.95
2022-10-17T12:18:17.456Z,4.90
2022-10-17T12:21:19.765Z,5.40
2022-10-17T12:24:54.894Z,4.25
2022-10-17T12:28:06.163Z,4.28
2022-10-17T12:31:19.041Z,4.60
2022-10-17T12:34:24.226Z,4.17
2022-10-17T12:37:43.444Z,4.32
2022-10-17T12:40:49.086Z,4.00
2022-10-17T12:43:54.429Z,4.30
2022-10-17T12:47:08.570Z,4.47
2022-10-17T12:50:48.976Z,4.10
2022-10-17T12:53:59.114Z,3.90
2022-10-17T12:57:01.719Z,4.10
2022-10-17T13:00:49.832Z,3.92
2022-10-17T13:04:05.838Z,3.80
2022-10-17T13:07:19.100Z,3.97
2022-10-17T13:16:43.645Z,3.53
2022-10-17T13:19:46.979Z,3.45
2022-10-17T13:22:49.648Z,3.10
2022-10-17T13:26:22.005Z,4.07
2022-10-17T13:29:25.901Z,3.92
2022-10-17T13:32:36.982Z,4.10
2022-10-17T13:36:00.357Z,3.42
2022-10-17T13:39:13.089Z,3.65
2022-10-17T13:42:29.286Z,3.33
2022-10-17T13:45:34.756Z,3.80
2022-10-17T13:48:38.209Z,3.50
2022-10-17T13:51:44.986Z,3.20
2022-10-17T13:54:53.204Z,4.00
2022-10-17T13:57:56.168Z,3.05
2022-10-17T14:00:59.174Z,3.78
2022-10-17T14:04:09.048Z,3.70
2022-10-17T14:07:26.339Z,3.47
2022-10-17T14:10:34.586Z,3.65
2022-10-17T14:13:36.874Z,3.50
2022-10-17T14:16:42.393Z,3.50
2022-10-17T14:19:51.483Z,3.67
2022-10-17T14:23:21.605Z,3.72
2022-10-17T14:26:24.056Z,3.83
2022-10-17T14:29:53.528Z,3.70
2022-10-17T14:32:58.503Z,4.05
2022-10-17T14:36:02.632Z,3.85
2022-10-17T14:39:13.361Z,3.78
2022-10-17T14:42:21.794Z,3.58
2022-10-17T14:45:28.684Z,3.75
2022-10-17T14:48:33.985Z,3.85
2022-10-17T14:51:50.206Z,4.35
2022-10-17T14:55:12.199Z,3.62
2022-10-17T14:58:22.708Z,3.67
2022-10-17T15:01:25.235Z,4.18
2022-10-17T15:04:27.423Z,4.80
2022-10-17T15:07:29.943Z,3.90
2022-10-17T15:10:35.596Z,4.12
2022-10-17T15:13:43.304Z,4.15
2022-10-17T15:16:47.747Z,3.75
2022-10-17T15:19:50.833Z,4.53
2022-10-17T15:22:54.270Z,4.10
2022-10-17T15:25:56.776Z,4.53
2022-10-17T15:28:59.556Z,4.30
2022-10-17T15:32:02.135Z,4.22
2022-10-17T15:35:04.584Z,4.80
2022-10-17T15:38:07.444Z,4.20
2022-10-17T15:41:11.446Z,4.50
2022-10-17T15:44:14.561Z,4.93
2022-10-17T15:47:23.351Z,5.73
2022-10-17T15:50:26.175Z,5.10
2022-10-17T15:53:28.549Z,5.25
2022-10-17T15:56:42.211Z,5.32
2022-10-17T15:59:46.947Z,5.50
2022-10-17T16:02:50.428Z,6.30
2022-10-17T16:05:52.945Z,5.35
2022-10-17T16:08:55.170Z,5.87
2022-10-17T16:11:57.706Z,6.55
2022-10-17T16:14:59.924Z,5.90
2022-10-17T16:18:05.872Z,6.28
2022-10-17T16:21:14.406Z,4.90
2022-10-17T16:24:17.788Z,5.10
2022-10-17T16:27:20.051Z,5.10
2022-10-17T16:30:24.691Z,5.30
2022-10-17T16:33:26.944Z,4.97
2022-10-17T16:36:29.515Z,5.35
2022-10-17T16:39:31.786Z,5.65
2022-10-17T16:42:34.363Z,5.25
2022-10-17T16:45:36.616Z,5.12
2022-10-17T16:51:42.427Z,5.87
2022-10-17T16:54:44.927Z,5.95
2022-10-17T16:57:48.993Z,5.40
2022-10-17T17:00:52.099Z,5.78
2022-10-17T17:03:54.417Z,5.43
2022-10-17T17:06:57.128Z,6.30
2022-10-17T17:09:59.370Z,7.25
2022-10-17T17:13:03.231Z,7.40
2022-10-17T17:16:11.506Z,7.25
2022-10-17T17:19:16.905Z,6.97
2022-10-17T17:22:19.246Z,7.25
2022-10-17T17:25:22.800Z,6.35
2022-10-17T17:28:26.403Z,6.28
2022-10-17T17:31:31.396Z,6.30
2022-10-17T17:34:37.315Z,7.90
2022-10-17T17:37:39.845Z,10.50
2022-10-17T17:40:50.667Z,8.43
2022-10-17T17:43:54.612Z,7.80
2022-10-17T17:46:58.443Z,7.60
2022-10-17T17:50:02.367Z,7.85
2022-10-17T17:53:05.730Z,7.55
2022-10-17T17:56:17.822Z,8.32
2022-10-17T17:59:20.128Z,7.95
2022-10-17T18:02:22.994Z,8.65
2022-10-17T18:05:26.840Z,8.10
2022-10-17T18:08:29.201Z,7.85
2022-10-17T18:11:32.538Z,7.82
2022-10-17T18:14:34.886Z,10.57
2022-10-17T18:17:37.952Z,8.80
2022-10-17T18:20:42.413Z,11.07
2022-10-17T18:23:46.624Z,11.98
2022-10-17T18:26:49.947Z,9.32
2022-10-17T18:29:52.446Z,10.10
2022-10-17T18:32:54.674Z,10.80
2022-10-17T18:35:58.423Z,11.12
2022-10-17T18:39:01.780Z,10.32
2022-10-17T18:42:04.553Z,10.85
2022-10-17T18:45:11.609Z,11.02
2022-10-17T18:48:14.124Z,9.70
2022-10-17T18:51:20.469Z,10.55
2022-10-17T18:54:24.425Z,10.90
2022-10-17T18:57:26.790Z,9.85
2022-10-17T19:00:30.384Z,10.02
2022-10-17T19:03:32.949Z,8.98
2022-10-17T19:06:37.401Z,9.27
2022-10-17T19:09:39.669Z,9.70
2022-10-17T19:12:42.187Z,8.77
2022-10-17T19:15:44.525Z,9.98
2022-10-17T19:18:51.826Z,9.90
2022-10-17T19:21:54.103Z,9.90
2022-10-17T19:24:56.700Z,9.27
2022-10-17T19:27:59.144Z,9.38
2022-10-17T19:31:01.772Z,10.57
2022-10-17T19:34:04.517Z,10.20
2022-10-17T19:37:07.271Z,10.13
2022-10-17T19:40:10.269Z,9.07
2022-10-17T19:43:12.780Z,9.50
2022-10-17T19:46:18.463Z,9.65
2022-10-17T19:49:21.155Z,9.60
2022-10-17T19:52:23.459Z,10.10
2022-10-17T19:55:25.936Z,9.68
2022-10-17T19:58:28.796Z,9.55
2022-10-17T20:01:34.409Z,10.83
2022-10-17T20:04:42.094Z,10.55
2022-10-17T20:07:53.765Z,10.10
2022-10-17T20:10:56.297Z,9.90
2022-10-17T20:14:00.208Z,10.07
2022-10-17T20:17:02.753Z,10.32
2022-10-17T20:20:08.748Z,10.35
2022-10-17T20:23:30.005Z,9.80
2022-10-17T20:26:38.229Z,10.65
2022-10-17T20:29:41.864Z,10.68
2022-10-17T20:32:44.213Z,9.77
2022-10-17T20:35:48.767Z,10.05
2022-10-17T20:38:55.794Z,9.55
2022-10-17T20:41:58.359Z,9.90
2022-10-17T20:45:00.627Z,10.02
2022-10-17T20:48:03.966Z,10.00
2022-10-17T20:51:10.503Z,9.77
2022-10-17T20:54:13.138Z,10.27
2022-10-17T20:57:15.356Z,9.95
2022-10-17T21:00:17.975Z,13.07
2022-10-17T21:03:20.415Z,19.17
2022-10-17T21:06:23.861Z,13.45
2022-10-17T21:09:26.279Z,12.50
2022-10-17T21:12:36.770Z,11.52
2022-10-17T21:15:48.342Z,11.98
2022-10-17T21:18:53.328Z,12.80
2022-10-17T21:21:55.560Z,11.88
2022-10-17T21:24:58.089Z,12.55
2022-10-17T21:28:00.284Z,13.43
2022-10-17T21:31:12.160Z,12.73
2022-10-17T21:34:17.726Z,12.50
2022-10-17T21:37:20.497Z,11.55
2022-10-17T21:40:22.994Z,12.37
2022-10-17T21:43:25.517Z,12.63
2022-10-17T21:46:28.557Z,12.20
2022-10-17T21:49:31.161Z,12.20
2022-10-17T21:52:33.604Z,12.55
2022-10-17T21:55:37.595Z,13.32
2022-10-17T21:58:40.798Z,13.35
2022-10-17T22:01:45.481Z,13.65
2022-10-17T22:04:48.166Z,12.77
2022-10-17T22:07:50.387Z,13.55
2022-10-17T22:10:52.894Z,13.75
2022-10-17T22:14:01.238Z,13.80
2022-10-17T22:17:03.804Z,13.85
2022-10-17T22:20:06.639Z,14.07
2022-10-17T22:23:09.104Z,14.50
2022-10-17T22:26:13.433Z,14.80
2022-10-17T22:29:16.478Z,14.70
2022-10-17T22:32:21.668Z,15.13
2022-10-17T22:35:25.204Z,15.02
2022-10-17T22:38:28.102Z,14.32
2022-10-17T22:41:30.647Z,14.90
2022-10-17T22:44:33.076Z,15.13
2022-10-17T22:47:35.592Z,15.23
2022-10-17T22:50:41.709Z,14.85
2022-10-17T22:53:44.410Z,15.25
2022-10-17T22:56:46.660Z,14.23
2022-10-17T22:59:49.138Z,13.95
2022-10-17T23:02:54.884Z,14.18
2022-10-17T23:05:57.788Z,13.98
2022-10-17T23:09:00.021Z,13.75
2022-10-17T23:12:02.574Z,14.25
2022-10-17T23:15:05.167Z,15.40
2022-10-17T23:18:09.713Z,15.35
2022-10-17T23:21:12.001Z,14.30
2022-10-17T23:24:15.567Z,14.45
2022-10-17T23:27:17.827Z,15.07
2022-10-17T23:30:20.340Z,14.43
2022-10-17T23:33:22.546Z,14.55
2022-10-17T23:36:25.159Z,15.25
2022-10-17T23:39:27.592Z,14.15
2022-10-17T23:42:30.269Z,14.95
2022-10-17T23:45:36.146Z,14.52
2022-10-17T23:48:40.476Z,14.00
2022-10-17T23:51:42.695Z,14.68
2022-10-17T23:54:45.156Z,14.87
2022-10-17T23:57:47.392Z,14.93
